createdAt,value
2022-12-27T00:01:21.058Z,87.73
2022-12-27T00:03:54.009Z,87.78
2022-12-27T00:06:28.424Z,88.03
2022-12-27T00:09:02.730Z,88.12
2022-12-27T00:11:36.341Z,87.93
2022-12-27T00:14:11.619Z,88.08
2022-12-27T00:16:44.227Z,88.11
2022-12-27T00:19:17.225Z,88.18
2022-12-27T00:21:50.046Z,88.05
2022-12-27T00:24:22.571Z,88.02
2022-12-27T00:26:55.353Z,88.14
2022-12-27T00:29:27.886Z,87.94
2022-12-27T00:32:00.731Z,88.13
2022-12-27T00:34:34.017Z,88.00
2022-12-27T00:37:06.521Z,87.83
2022-12-27T00:39:39.122Z,88.02
2022-12-27T00:42:11.595Z,88.07
2022-12-27T00:44:47.073Z,87.91
2022-12-27T00:47:19.573Z,87.90
2022-12-27T00:49:52.140Z,87.89
2022-12-27T00:52:24.819Z,87.89
2022-12-27T00:54:57.391Z,87.96
2022-12-27T00:57:30.513Z,87.84
2022-12-27T01:00:09.631Z,87.91
2022-12-27T01:02:42.802Z,87.98
2022-12-27T01:05:15.482Z,87.99
2022-12-27T01:07:48.674Z,87.85
2022-12-27T01:10:21.358Z,87.71
2022-12-27T01:12:53.873Z,87.70
2022-12-27T01:15:26.338Z,87.62
2022-12-27T01:17:58.843Z,87.54
2022-12-27T01:20:33.077Z,87.54
2022-12-27T01:23:05.584Z,87.43
2022-12-27T01:25:38.074Z,87.61
2022-12-27T01:28:10.643Z,87.66
2022-12-27T01:30:43.117Z,87.51
2022-12-27T01:33:17.891Z,87.56
2022-12-27T01:35:50.722Z,87.64
2022-12-27T01:38:23.278Z,87.56
2022-12-27T01:40:55.731Z,87.55
2022-12-27T01:43:43.081Z,87.40
2022-12-27T01:46:15.812Z,87.33
2022-12-27T01:48:48.456Z,87.16
2022-12-27T01:51:21.521Z,87.18
2022-12-27T01:53:55.216Z,87.23
2022-12-27T01:56:31.421Z,87.01
2022-12-27T01:59:07.040Z,87.27
2022-12-27T02:01:44.091Z,87.45
2022-12-27T02:04:19.361Z,87.50
2022-12-27T02:06:54.280Z,87.70
2022-12-27T02:09:35.636Z,87.72
2022-12-27T02:12:10.435Z,87.87
2022-12-27T02:14:44.941Z,87.86
2022-12-27T02:17:21.890Z,88.01
2022-12-27T02:20:02.969Z,88.20
2022-12-27T02:23:22.089Z,88.08
2022-12-27T02:26:23.127Z,88.19
2022-12-27T02:29:16.819Z,88.28
2022-12-27T02:31:59.595Z,88.33
2022-12-27T02:34:43.661Z,88.35
2022-12-27T02:37:17.032Z,88.29
2022-12-27T02:39:51.412Z,88.17
2022-12-27T02:42:41.774Z,88.17
2022-12-27T02:45:39.798Z,88.34
2022-12-27T02:48:31.982Z,88.28
2022-12-27T02:51:40.828Z,88.31
2022-12-27T02:54:24.143Z,88.30
2022-12-27T02:57:11.945Z,88.26
2022-12-27T03:00:29.853Z,88.20
2022-12-27T03:03:29.131Z,88.19
2022-12-27T03:06:42.194Z,88.10
2022-12-27T03:09:53.618Z,88.17
2022-12-27T03:12:59.791Z,88.22
2022-12-27T03:15:56.889Z,88.33
2022-12-27T03:18:51.746Z,88.53
2022-12-27T03:21:46.980Z,88.60
2022-12-27T03:24:39.698Z,88.88
2022-12-27T03:27:18.466Z,88.92
2022-12-27T03:30:12.464Z,88.96
2022-12-27T03:33:08.692Z,89.10
2022-12-27T03:36:05.204Z,89.15
2022-12-27T03:38:43.539Z,88.97
2022-12-27T03:41:40.217Z,89.06
2022-12-27T03:44:25.334Z,88.99
2022-12-27T03:47:01.732Z,88.93
2022-12-27T03:49:40.372Z,89.09
2022-12-27T03:52:17.273Z,89.02
2022-12-27T03:54:52.639Z,89.04
2022-12-27T03:57:28.170Z,89.03
2022-12-27T04:00:00.782Z,88.93
2022-12-27T04:02:33.968Z,89.04
2022-12-27T04:05:07.741Z,88.90
2022-12-27T04:07:55.045Z,88.80
2022-12-27T04:10:44.955Z,88.86
2022-12-27T04:13:34.853Z,88.85
2022-12-27T04:16:25.656Z,88.76
2022-12-27T04:19:15.632Z,88.78
2022-12-27T04:22:05.598Z,89.03
2022-12-27T04:24:56.365Z,88.96
2022-12-27T04:27:46.963Z,88.96
2022-12-27T04:30:37.274Z,89.03
2022-12-27T04:33:28.584Z,88.99
2022-12-27T04:36:05.972Z,89.13
2022-12-27T04:38:39.098Z,89.29
2022-12-27T04:41:30.552Z,89.23
2022-12-27T04:44:20.749Z,89.32
2022-12-27T04:47:11.205Z,89.14
2022-12-27T04:50:01.055Z,89.59
2022-12-27T04:52:51.845Z,89.96
2022-12-27T04:55:26.680Z,90.60
2022-12-27T04:58:00.427Z,91.28
2022-12-27T05:00:52.716Z,92.09
2022-12-27T05:03:27.354Z,92.40
2022-12-27T05:06:00.024Z,92.46
2022-12-27T05:08:50.788Z,92.42
2022-12-27T05:11:41.340Z,92.25
2022-12-27T05:14:16.891Z,92.26
2022-12-27T05:16:49.729Z,92.39
2022-12-27T05:19:23.092Z,92.57
2022-12-27T05:22:13.129Z,92.51
2022-12-27T05:25:02.977Z,92.79
2022-12-27T05:27:37.918Z,92.84
2022-12-27T05:30:12.404Z,92.96
2022-12-27T05:32:45.178Z,93.12
2022-12-27T05:35:18.105Z,93.20
2022-12-27T05:37:54.922Z,93.16
2022-12-27T05:40:29.138Z,93.23
2022-12-27T05:43:04.019Z,93.21
2022-12-27T05:45:37.055Z,92.83
2022-12-27T05:48:10.241Z,92.52
2022-12-27T05:50:43.883Z,92.50
2022-12-27T05:53:17.752Z,92.39
2022-12-27T05:55:57.122Z,92.29
2022-12-27T05:58:29.900Z,92.36
2022-12-27T06:01:04.604Z,92.70
2022-12-27T06:03:37.321Z,92.91
2022-12-27T06:06:11.836Z,93.19
2022-12-27T06:08:44.631Z,93.28
2022-12-27T06:11:18.993Z,93.40
2022-12-27T06:13:55.355Z,93.38
2022-12-27T06:16:27.909Z,93.39
2022-12-27T06:19:01.200Z,93.26
2022-12-27T06:21:33.951Z,92.97
2022-12-27T06:24:07.197Z,92.60
2022-12-27T06:26:39.968Z,92.48
2022-12-27T06:29:15.167Z,92.12
2022-12-27T06:31:48.256Z,91.86
2022-12-27T06:34:20.902Z,90.97
2022-12-27T06:36:53.710Z,90.44
2022-12-27T06:39:26.444Z,90.47
2022-12-27T06:41:59.171Z,90.44
2022-12-27T06:44:31.888Z,90.45
2022-12-27T06:47:04.824Z,90.39
2022-12-27T06:49:37.587Z,90.07
2022-12-27T06:52:15.660Z,90.18
2022-12-27T06:54:48.423Z,90.09
2022-12-27T06:57:21.204Z,89.14
2022-12-27T06:59:54.271Z,89.00
2022-12-27T07:02:27.472Z,89.07
2022-12-27T07:05:00.628Z,88.81
2022-12-27T07:07:34.213Z,88.53
2022-12-27T07:10:08.085Z,88.32
2022-12-27T07:12:40.991Z,87.81
2022-12-27T07:15:14.608Z,87.47
2022-12-27T07:17:47.369Z,87.22
2022-12-27T07:20:20.063Z,86.81
2022-12-27T07:22:52.880Z,86.70
2022-12-27T07:25:25.522Z,86.35
2022-12-27T07:27:58.486Z,86.31
2022-12-27T07:30:31.567Z,86.32
2022-12-27T07:33:04.179Z,86.23
2022-12-27T07:35:40.889Z,86.24
2022-12-27T07:38:17.672Z,84.13
2022-12-27T07:40:50.802Z,83.31
2022-12-27T07:43:23.868Z,83.96
2022-12-27T07:45:56.709Z,84.52
2022-12-27T07:48:31.288Z,85.18
2022-12-27T07:51:03.956Z,85.70
2022-12-27T07:53:37.893Z,85.64
2022-12-27T07:56:13.350Z,85.36
2022-12-27T07:58:47.624Z,85.25
2022-12-27T08:01:22.149Z,84.97
2022-12-27T08:03:55.038Z,84.10
2022-12-27T08:06:32.471Z,83.42
2022-12-27T08:09:08.136Z,83.38
2022-12-27T08:11:40.741Z,83.41
2022-12-27T08:14:13.535Z,83.67
2022-12-27T08:16:46.323Z,83.90
2022-12-27T08:19:19.546Z,84.41
2022-12-27T08:21:52.756Z,84.67
2022-12-27T08:24:25.836Z,85.25
2022-12-27T08:27:00.394Z,85.48
2022-12-27T08:29:33.237Z,85.33
2022-12-27T08:32:06.715Z,86.20
2022-12-27T08:34:39.219Z,86.23
2022-12-27T08:37:11.797Z,82.96
2022-12-27T08:39:44.467Z,79.48
2022-12-27T08:42:17.253Z,78.60
2022-12-27T08:44:51.106Z,77.09
2022-12-27T08:47:24.210Z,75.50
2022-12-27T08:49:56.951Z,74.44
2022-12-27T08:52:29.639Z,75.02
2022-12-27T08:55:02.291Z,75.36
2022-12-27T08:57:35.833Z,73.68
2022-12-27T09:00:10.797Z,73.61
2022-12-27T09:02:43.543Z,74.34
2022-12-27T09:05:16.165Z,74.15
2022-12-27T09:07:49.057Z,74.03
2022-12-27T09:10:25.378Z,74.62
2022-12-27T09:12:57.955Z,75.33
2022-12-27T09:15:30.623Z,75.84
2022-12-27T09:18:04.239Z,75.83
2022-12-27T09:20:37.148Z,76.32
2022-12-27T09:23:11.266Z,76.79
2022-12-27T09:25:44.914Z,76.98
2022-12-27T09:28:17.573Z,76.70
2022-12-27T09:30:50.773Z,76.41
2022-12-27T09:33:23.301Z,76.48
2022-12-27T09:36:01.840Z,77.01
2022-12-27T09:38:35.013Z,77.16
2022-12-27T09:41:19.957Z,77.87
2022-12-27T09:44:08.420Z,77.61
2022-12-27T09:46:45.591Z,78.47
2022-12-27T09:49:25.824Z,78.40
2022-12-27T09:52:01.797Z,78.38
2022-12-27T09:54:38.456Z,77.71
2022-12-27T09:57:21.306Z,77.45
2022-12-27T09:59:59.540Z,76.86
2022-12-27T10:02:30.896Z,75.10
2022-12-27T10:05:21.737Z,75.84
2022-12-27T10:08:14.669Z,76.57
2022-12-27T10:10:57.093Z,75.98
2022-12-27T10:13:42.538Z,75.30
2022-12-27T10:16:26.971Z,74.87
2022-12-27T10:19:19.334Z,74.78
2022-12-27T10:22:04.649Z,73.53
2022-12-27T10:24:45.549Z,72.99
2022-12-27T10:27:23.095Z,72.09
2022-12-27T10:29:58.007Z,71.44
2022-12-27T10:32:30.952Z,71.32
2022-12-27T10:35:06.130Z,71.29
2022-12-27T10:37:38.767Z,70.71
2022-12-27T10:40:17.536Z,70.43
2022-12-27T10:42:59.739Z,71.53
2022-12-27T10:45:36.357Z,71.24
2022-12-27T10:48:19.459Z,70.63
2022-12-27T10:50:55.847Z,70.74
2022-12-27T10:53:35.811Z,70.42
2022-12-27T10:56:16.886Z,71.23
2022-12-27T10:58:58.128Z,70.95
2022-12-27T11:01:34.973Z,71.34
2022-12-27T11:04:21.154Z,71.55
2022-12-27T11:07:13.011Z,70.82
2022-12-27T11:09:51.086Z,70.81
2022-12-27T11:12:26.145Z,70.30
2022-12-27T11:15:00.560Z,70.12
2022-12-27T11:17:41.292Z,69.86
2022-12-27T11:20:26.552Z,68.78
2022-12-27T11:23:02.991Z,68.56
2022-12-27T11:25:37.045Z,68.82
2022-12-27T11:28:24.442Z,68.57
2022-12-27T11:31:01.188Z,67.22
2022-12-27T11:33:39.420Z,67.64
2022-12-27T11:36:13.112Z,67.85
2022-12-27T11:38:51.007Z,68.06
2022-12-27T11:41:33.123Z,68.38
2022-12-27T11:44:14.826Z,68.29
2022-12-27T11:46:58.577Z,68.44
2022-12-27T11:49:37.247Z,66.73
2022-12-27T11:52:40.726Z,67.08
2022-12-27T11:55:49.366Z,65.62
2022-12-27T11:58:45.930Z,63.96
2022-12-27T12:01:38.286Z,64.28
2022-12-27T12:04:53.449Z,64.31
2022-12-27T12:07:41.259Z,64.26
2022-12-27T12:10:25.825Z,64.11
2022-12-27T12:13:33.097Z,63.76
2022-12-27T12:16:25.285Z,63.17
2022-12-27T12:19:14.705Z,63.76
2022-12-27T12:21:59.506Z,63.99
2022-12-27T12:24:43.399Z,63.34
2022-12-27T12:27:43.952Z,63.89
2022-12-27T12:30:33.455Z,64.19
2022-12-27T12:33:34.757Z,64.09
2022-12-27T12:36:28.485Z,65.03
2022-12-27T12:39:11.396Z,65.14
2022-12-27T12:42:12.889Z,64.81
2022-12-27T12:45:31.517Z,64.22
2022-12-27T12:48:25.381Z,64.99
2022-12-27T12:51:23.382Z,65.67
2022-12-27T12:54:11.225Z,65.75
2022-12-27T12:57:07.560Z,66.29
2022-12-27T13:00:09.506Z,66.44
2022-12-27T13:03:21.711Z,66.79
2022-12-27T13:06:01.995Z,67.70
2022-12-27T13:08:39.722Z,67.85
2022-12-27T13:11:30.001Z,67.81
2022-12-27T13:14:17.905Z,67.22
2022-12-27T13:16:55.886Z,67.34
2022-12-27T13:19:42.555Z,67.36
2022-12-27T13:22:24.724Z,66.95
2022-12-27T13:25:13.054Z,67.12
2022-12-27T13:27:56.194Z,67.31
2022-12-27T13:30:35.542Z,66.99
2022-12-27T13:33:24.753Z,67.47
2022-12-27T13:36:11.728Z,67.58
2022-12-27T13:39:28.729Z,67.64
2022-12-27T13:42:22.840Z,67.76
2022-12-27T13:45:11.208Z,68.17
2022-12-27T13:48:06.274Z,68.24
2022-12-27T13:50:57.973Z,68.28
2022-12-27T13:54:05.953Z,68.51
2022-12-27T13:56:53.951Z,69.09
2022-12-27T13:59:51.676Z,69.38
2022-12-27T14:03:02.731Z,68.82
2022-12-27T14:06:07.042Z,68.41
2022-12-27T14:09:18.981Z,68.27
2022-12-27T14:12:06.320Z,68.70
2022-12-27T14:14:42.304Z,69.12
2022-12-27T14:17:33.449Z,69.18
2022-12-27T14:20:26.975Z,69.18
2022-12-27T14:23:25.010Z,69.15
2022-12-27T14:26:35.728Z,69.90
2022-12-27T14:29:38.894Z,70.27
2022-12-27T14:32:42.646Z,70.62
2022-12-27T14:35:45.189Z,70.76
2022-12-27T14:39:06.915Z,70.68
2022-12-27T14:42:18.749Z,70.56
2022-12-27T14:45:32.904Z,70.33
2022-12-27T14:48:46.676Z,70.65
2022-12-27T14:52:01.591Z,70.77
2022-12-27T14:55:19.517Z,70.82
2022-12-27T14:58:07.584Z,71.14
2022-12-27T15:01:01.643Z,71.43
2022-12-27T15:03:50.057Z,71.59
2022-12-27T15:06:35.696Z,71.30
2022-12-27T15:09:21.193Z,71.70
2022-12-27T15:12:22.811Z,71.61
2022-12-27T15:15:34.014Z,71.60
2022-12-27T15:18:29.307Z,71.38
2022-12-27T15:21:17.074Z,71.36
2022-12-27T15:23:54.771Z,71.35
2022-12-27T15:26:37.776Z,71.45
2022-12-27T15:29:31.646Z,71.28
2022-12-27T15:32:29.447Z,71.51
2022-12-27T15:35:17.079Z,71.74
2022-12-27T15:38:05.311Z,71.98
2022-12-27T15:41:13.539Z,71.90
2022-12-27T15:44:30.871Z,72.45
2022-12-27T15:47:35.015Z,72.46
2022-12-27T15:50:25.688Z,72.31
2022-12-27T15:53:24.460Z,72.32
2022-12-27T15:56:29.362Z,72.47
2022-12-27T15:59:42.649Z,72.20
2022-12-27T16:02:37.841Z,72.25
2022-12-27T16:05:36.643Z,72.00
2022-12-27T16:08:43.361Z,72.16
2022-12-27T16:11:17.012Z,72.19
2022-12-27T16:14:27.958Z,71.97
2022-12-27T16:17:11.908Z,72.17
2022-12-27T16:20:15.550Z,72.39
2022-12-27T16:22:54.380Z,72.42
2022-12-27T16:25:32.176Z,72.57
2022-12-27T16:28:09.181Z,72.61
2022-12-27T16:30:49.006Z,72.45
2022-12-27T16:33:39.219Z,72.96
2022-12-27T16:36:21.406Z,73.18
2022-12-27T16:39:14.765Z,73.57
2022-12-27T16:42:03.968Z,72.96
2022-12-27T16:44:55.725Z,73.29
2022-12-27T16:47:49.756Z,73.31
2022-12-27T16:50:41.497Z,73.23
2022-12-27T16:53:27.912Z,73.42
2022-12-27T16:56:29.044Z,72.70
2022-12-27T16:59:01.801Z,72.86
2022-12-27T17:02:02.446Z,72.73
2022-12-27T17:05:00.520Z,72.20
2022-12-27T17:07:46.919Z,72.60
2022-12-27T17:10:56.793Z,72.65
2022-12-27T17:13:38.060Z,72.69
2022-12-27T17:16:20.166Z,72.91
2022-12-27T17:18:58.077Z,73.03
2022-12-27T17:21:33.185Z,72.84
2022-12-27T17:24:10.277Z,72.76
2022-12-27T17:26:56.302Z,73.12
2022-12-27T17:29:48.282Z,73.38
2022-12-27T17:32:34.285Z,73.33
2022-12-27T17:35:14.258Z,73.54
2022-12-27T17:37:59.481Z,73.40
2022-12-27T17:40:41.039Z,73.59
2022-12-27T17:43:47.801Z,73.52
2022-12-27T17:46:30.179Z,73.66
2022-12-27T17:49:02.745Z,73.71
2022-12-27T17:51:40.580Z,73.67
2022-12-27T17:54:42.700Z,73.67
2022-12-27T17:57:37.714Z,73.39
2022-12-27T18:00:25.068Z,72.67
2022-12-27T18:02:59.792Z,72.80
2022-12-27T18:05:37.683Z,72.25
2022-12-27T18:08:19.906Z,72.01
2022-12-27T18:10:52.843Z,72.22
2022-12-27T18:13:27.914Z,71.73
2022-12-27T18:16:08.165Z,71.32
2022-12-27T18:18:42.719Z,71.30
2022-12-27T18:21:24.599Z,70.93
2022-12-27T18:23:58.088Z,70.82
2022-12-27T18:26:39.570Z,70.81
2022-12-27T18:29:14.261Z,70.80
2022-12-27T18:31:51.045Z,70.74
2022-12-27T18:34:29.330Z,70.62
2022-12-27T18:37:04.922Z,70.69
2022-12-27T18:39:40.613Z,71.00
2022-12-27T18:42:21.208Z,71.20
2022-12-27T18:45:02.524Z,70.65
2022-12-27T18:47:39.681Z,70.49
2022-12-27T18:50:21.269Z,70.23
2022-12-27T18:53:03.937Z,70.12
2022-12-27T18:55:37.344Z,69.96
2022-12-27T18:58:20.148Z,70.01
2022-12-27T19:00:56.711Z,70.14
2022-12-27T19:03:32.723Z,70.48
2022-12-27T19:06:12.708Z,70.05
2022-12-27T19:08:51.242Z,69.85
2022-12-27T19:11:29.362Z,69.67
2022-12-27T19:14:06.066Z,69.69
2022-12-27T19:16:38.837Z,70.04
2022-12-27T19:19:19.926Z,69.92
2022-12-27T19:21:52.456Z,69.67
2022-12-27T19:24:34.847Z,69.81
2022-12-27T19:27:24.900Z,69.85
2022-12-27T19:29:57.451Z,69.23
2022-12-27T19:32:36.341Z,69.37
2022-12-27T19:35:14.470Z,69.70
2022-12-27T19:37:47.119Z,69.46
2022-12-27T19:40:20.330Z,69.73
2022-12-27T19:42:53.221Z,70.03
2022-12-27T19:45:26.299Z,70.56
2022-12-27T19:47:59.622Z,70.62
2022-12-27T19:50:34.940Z,70.80
2022-12-27T19:53:07.597Z,70.99
2022-12-27T19:55:40.095Z,71.08
2022-12-27T19:58:20.132Z,70.82
2022-12-27T20:00:52.878Z,70.51
2022-12-27T20:03:25.784Z,70.50
2022-12-27T20:06:12.947Z,70.57
2022-12-27T20:08:52.096Z,70.51
2022-12-27T20:11:27.781Z,70.24
2022-12-27T20:14:00.961Z,70.65
2022-12-27T20:16:36.180Z,70.49
2022-12-27T20:19:10.490Z,70.70
2022-12-27T20:21:43.501Z,70.58
2022-12-27T20:24:16.161Z,70.87
2022-12-27T20:26:48.667Z,71.09
2022-12-27T20:29:23.476Z,71.02
2022-12-27T20:31:57.384Z,70.72
2022-12-27T20:34:29.939Z,71.08
2022-12-27T20:37:02.427Z,70.99
2022-12-27T20:39:35.666Z,71.41
2022-12-27T20:42:10.072Z,71.44
2022-12-27T20:44:42.613Z,71.34
2022-12-27T20:47:15.076Z,71.69
2022-12-27T20:49:48.020Z,71.89
2022-12-27T20:52:24.285Z,72.10
2022-12-27T20:54:59.675Z,72.29
2022-12-27T20:57:32.186Z,72.29
2022-12-27T21:00:07.256Z,72.17
2022-12-27T21:02:41.136Z,72.14
2022-12-27T21:05:13.875Z,71.95
2022-12-27T21:07:48.280Z,71.84
2022-12-27T21:10:20.817Z,71.85
2022-12-27T21:12:53.269Z,71.65
2022-12-27T21:15:25.754Z,71.93
2022-12-27T21:17:58.306Z,71.93
2022-12-27T21:20:30.819Z,72.15
2022-12-27T21:23:03.324Z,72.08
2022-12-27T21:25:36.081Z,72.35
2022-12-27T21:28:09.229Z,72.34
2022-12-27T21:30:41.886Z,71.99
2022-12-27T21:33:15.048Z,72.07
2022-12-27T21:35:55.505Z,72.18
2022-12-27T21:38:29.139Z,72.07
2022-12-27T21:41:03.686Z,72.22
2022-12-27T21:43:37.993Z,72.10
2022-12-27T21:46:15.147Z,71.85
2022-12-27T21:48:48.196Z,71.97
2022-12-27T21:51:21.827Z,72.35
2022-12-27T21:53:54.947Z,72.55
2022-12-27T21:56:28.754Z,72.48
2022-12-27T21:59:03.072Z,72.92
2022-12-27T22:01:50.417Z,73.31
2022-12-27T22:04:25.242Z,73.33
2022-12-27T22:06:57.767Z,73.59
2022-12-27T22:09:30.494Z,73.62
2022-12-27T22:12:02.949Z,73.88
2022-12-27T22:14:37.168Z,74.28
2022-12-27T22:17:09.960Z,74.54
2022-12-27T22:19:44.252Z,74.67
2022-12-27T22:22:16.758Z,75.24
2022-12-27T22:24:49.243Z,75.43
2022-12-27T22:27:21.763Z,75.59
2022-12-27T22:29:54.500Z,76.08
2022-12-27T22:32:27.862Z,76.07
2022-12-27T22:35:00.389Z,76.24
2022-12-27T22:37:32.953Z,76.21
2022-12-27T22:40:06.204Z,76.24
2022-12-27T22:43:00.340Z,76.42
2022-12-27T22:45:32.916Z,76.64
2022-12-27T22:48:07.377Z,76.71
2022-12-27T22:50:41.185Z,77.08
2022-12-27T22:53:15.112Z,77.33
2022-12-27T22:55:49.031Z,77.21
2022-12-27T22:58:21.530Z,77.27
2022-12-27T23:00:54.031Z,77.33
2022-12-27T23:03:26.828Z,77.41
2022-12-27T23:06:03.460Z,77.34
2022-12-27T23:08:37.142Z,77.28
2022-12-27T23:11:14.340Z,77.24
2022-12-27T23:13:47.232Z,77.16
2022-12-27T23:16:19.786Z,77.31
2022-12-27T23:18:55.421Z,77.41
2022-12-27T23:21:28.055Z,77.36
2022-12-27T23:24:00.801Z,77.61
2022-12-27T23:26:33.399Z,77.51
2022-12-27T23:29:08.282Z,77.66
2022-12-27T23:31:54.859Z,77.53
2022-12-27T23:34:29.358Z,77.41
2022-12-27T23:37:02.575Z,77.45
2022-12-27T23:39:36.780Z,77.64
2022-12-27T23:42:09.295Z,77.40
2022-12-27T23:44:41.768Z,77.73
2022-12-27T23:47:14.252Z,77.98
2022-12-27T23:49:46.791Z,78.17
2022-12-27T23:52:22.279Z,78.19
2022-12-27T23:54:54.781Z,78.22
2022-12-27T23:57:27.320Z,78.24
2022-12-27T23:59:59.894Z,78.12
